createdAt,value
2023-01-31T00:01:15.875Z,8.27
2023-01-31T00:03:43.884Z,6.90
2023-01-31T00:06:29.781Z,6.20
2023-01-31T00:08:58.347Z,6.00
2023-01-31T00:11:27.133Z,10.03
2023-01-31T00:13:54.507Z,6.13
2023-01-31T00:16:22.693Z,6.33
2023-01-31T00:18:50.679Z,5.73
2023-01-31T00:21:19.963Z,10.50
2023-01-31T00:23:48.142Z,10.53
2023-01-31T00:26:34.981Z,8.73
2023-01-31T00:29:04.347Z,8.37
2023-01-31T00:31:33.254Z,8.93
2023-01-31T00:34:00.714Z,11.03
2023-01-31T00:36:30.444Z,7.27
2023-01-31T00:39:00.470Z,10.47
2023-01-31T00:41:29.751Z,6.87
2023-01-31T00:43:57.649Z,8.07
2023-01-31T00:46:25.307Z,9.13
2023-01-31T00:48:52.645Z,6.57
2023-01-31T00:51:20.961Z,16.20
2023-01-31T00:53:48.391Z,9.70
2023-01-31T00:56:18.581Z,8.57
2023-01-31T00:58:46.254Z,7.90
2023-01-31T01:01:15.805Z,9.60
2023-01-31T01:03:45.614Z,6.63
2023-01-31T01:06:14.259Z,7.27
2023-01-31T01:08:43.039Z,8.53
2023-01-31T01:11:18.938Z,9.37
2023-01-31T01:13:46.313Z,9.13
2023-01-31T01:16:28.878Z,5.77
2023-01-31T01:18:55.745Z,9.63
2023-01-31T01:21:26.700Z,8.40
2023-01-31T01:23:56.519Z,8.13
2023-01-31T01:26:26.643Z,9.17
2023-01-31T01:28:55.401Z,9.33
2023-01-31T01:31:30.355Z,8.50
2023-01-31T01:34:07.015Z,5.83
2023-01-31T01:36:36.464Z,10.00
2023-01-31T01:39:06.649Z,8.10
2023-01-31T01:41:33.944Z,8.10
2023-01-31T01:44:02.630Z,10.43
2023-01-31T01:46:43.126Z,7.60
2023-01-31T01:49:35.284Z,8.37
2023-01-31T01:52:07.003Z,6.97
2023-01-31T01:54:50.666Z,7.90
2023-01-31T01:57:21.828Z,6.17
2023-01-31T02:00:17.771Z,6.73
2023-01-31T02:02:47.498Z,7.87
2023-01-31T02:05:19.960Z,12.57
2023-01-31T02:07:47.504Z,6.80
2023-01-31T02:10:21.674Z,11.23
2023-01-31T02:12:48.790Z,5.97
2023-01-31T02:15:15.746Z,9.07
2023-01-31T02:17:43.199Z,7.50
2023-01-31T02:21:03.464Z,8.60
2023-01-31T02:23:55.360Z,7.43
2023-01-31T02:26:25.744Z,10.50
2023-01-31T02:29:35.670Z,9.80
2023-01-31T02:32:21.654Z,8.07
2023-01-31T02:35:09.570Z,7.50
2023-01-31T02:38:00.182Z,11.07
2023-01-31T02:40:52.485Z,7.43
2023-01-31T02:43:24.839Z,7.13
2023-01-31T02:46:08.287Z,9.87
2023-01-31T02:48:56.204Z,7.17
2023-01-31T02:51:23.057Z,9.67
2023-01-31T02:54:00.201Z,6.97
2023-01-31T02:56:37.107Z,9.17
2023-01-31T02:59:20.154Z,11.20
2023-01-31T03:01:55.175Z,13.20
2023-01-31T03:04:22.851Z,6.00
2023-01-31T03:07:00.341Z,8.50
2023-01-31T03:09:36.781Z,8.47
2023-01-31T03:12:36.413Z,7.10
2023-01-31T03:15:57.462Z,9.63
2023-01-31T03:18:29.075Z,8.83
2023-01-31T03:21:24.321Z,7.67
2023-01-31T03:23:55.061Z,5.93
2023-01-31T03:26:24.274Z,7.97
2023-01-31T03:28:57.255Z,8.70
2023-01-31T03:31:37.067Z,6.97
2023-01-31T03:34:08.512Z,9.67
2023-01-31T03:36:41.490Z,7.97
2023-01-31T03:39:25.417Z,7.60
2023-01-31T03:41:52.440Z,6.47
2023-01-31T03:44:50.092Z,6.50
2023-01-31T03:47:41.862Z,9.47
2023-01-31T03:50:16.048Z,5.93
2023-01-31T03:52:59.040Z,14.43
2023-01-31T03:55:42.870Z,12.50
2023-01-31T03:58:13.607Z,8.00
2023-01-31T04:00:44.544Z,8.57
2023-01-31T04:03:20.922Z,11.00
2023-01-31T04:05:49.214Z,7.40
2023-01-31T04:08:17.165Z,7.43
2023-01-31T04:10:51.792Z,5.87
2023-01-31T04:13:18.699Z,9.10
2023-01-31T04:15:45.822Z,8.47
2023-01-31T04:18:12.582Z,4.60
2023-01-31T04:20:39.340Z,6.80
2023-01-31T04:23:05.995Z,7.07
2023-01-31T04:25:33.554Z,8.03
2023-01-31T04:28:00.821Z,7.47
2023-01-31T04:30:27.560Z,9.80
2023-01-31T04:32:54.451Z,7.80
2023-01-31T04:35:21.457Z,5.67
2023-01-31T04:37:48.525Z,10.13
2023-01-31T04:40:15.754Z,9.40
2023-01-31T04:42:42.520Z,10.73
2023-01-31T04:45:10.458Z,7.57
2023-01-31T04:47:37.484Z,7.67
2023-01-31T04:50:04.764Z,8.80
2023-01-31T04:52:31.765Z,9.80
2023-01-31T04:54:58.566Z,8.87
2023-01-31T04:57:25.884Z,10.60
2023-01-31T04:59:52.652Z,6.50
2023-01-31T05:02:19.490Z,7.30
2023-01-31T05:04:47.184Z,7.47
2023-01-31T05:07:13.877Z,8.60
2023-01-31T05:09:42.566Z,5.53
2023-01-31T05:12:09.502Z,7.83
2023-01-31T05:14:36.292Z,7.53
2023-01-31T05:17:03.152Z,5.07
2023-01-31T05:19:30.058Z,6.87
2023-01-31T05:21:59.980Z,9.60
2023-01-31T05:24:30.243Z,6.50
2023-01-31T05:26:58.861Z,10.13
2023-01-31T05:29:27.268Z,7.83
2023-01-31T05:31:56.557Z,10.40
2023-01-31T05:34:25.518Z,6.13
2023-01-31T05:36:52.851Z,9.93
2023-01-31T05:39:19.851Z,7.23
2023-01-31T05:41:46.852Z,8.83
2023-01-31T05:44:14.483Z,8.27
2023-01-31T05:46:41.473Z,9.53
2023-01-31T05:49:08.759Z,4.50
2023-01-31T05:51:35.418Z,6.70
2023-01-31T05:54:02.781Z,8.47
2023-01-31T05:56:29.659Z,9.47
2023-01-31T05:58:56.832Z,13.20
2023-01-31T06:01:26.025Z,4.90
2023-01-31T06:03:53.807Z,9.03
2023-01-31T06:06:21.374Z,12.40
2023-01-31T06:08:48.412Z,4.97
2023-01-31T06:11:15.608Z,7.33
2023-01-31T06:13:46.687Z,5.57
2023-01-31T06:16:13.464Z,11.70
2023-01-31T06:18:40.432Z,7.27
2023-01-31T06:21:12.206Z,7.97
2023-01-31T06:23:39.336Z,10.33
2023-01-31T06:26:06.356Z,9.73
2023-01-31T06:28:33.116Z,6.17
2023-01-31T06:30:59.890Z,10.67
2023-01-31T06:33:42.198Z,5.20
2023-01-31T06:36:13.079Z,8.57
2023-01-31T06:38:39.794Z,9.43
2023-01-31T06:41:06.683Z,8.73
2023-01-31T06:43:33.556Z,5.77
2023-01-31T06:46:00.271Z,6.67
2023-01-31T06:48:27.374Z,8.80
2023-01-31T06:50:54.761Z,5.00
2023-01-31T06:53:21.778Z,7.63
2023-01-31T06:55:48.527Z,8.97
2023-01-31T06:58:15.199Z,8.27
2023-01-31T07:00:42.193Z,10.60
2023-01-31T07:03:09.043Z,13.70
2023-01-31T07:05:36.122Z,11.97
2023-01-31T07:08:02.889Z,6.97
2023-01-31T07:10:30.273Z,9.63
2023-01-31T07:12:57.387Z,7.30
2023-01-31T07:15:24.579Z,4.70
2023-01-31T07:17:51.578Z,9.63
2023-01-31T07:20:18.479Z,7.77
2023-01-31T07:22:45.147Z,6.73
2023-01-31T07:25:11.899Z,6.83
2023-01-31T07:27:38.935Z,9.97
2023-01-31T07:30:06.537Z,7.97
2023-01-31T07:32:34.476Z,9.13
2023-01-31T07:35:01.462Z,7.23
2023-01-31T07:37:28.545Z,5.00
2023-01-31T07:39:55.284Z,11.07
2023-01-31T07:42:22.214Z,4.40
2023-01-31T07:44:49.012Z,7.13
2023-01-31T07:47:15.724Z,4.73
2023-01-31T07:49:43.091Z,5.27
2023-01-31T07:52:10.111Z,9.03
2023-01-31T07:54:37.011Z,8.13
2023-01-31T07:57:07.136Z,8.77
2023-01-31T07:59:33.844Z,4.57
2023-01-31T08:02:18.869Z,5.03
2023-01-31T08:04:45.624Z,5.23
2023-01-31T08:07:12.888Z,6.43
2023-01-31T08:09:40.058Z,6.60
2023-01-31T08:12:08.191Z,8.63
2023-01-31T08:14:35.013Z,10.30
2023-01-31T08:17:01.940Z,6.77
2023-01-31T08:19:29.449Z,4.50
2023-01-31T08:21:56.379Z,3.77
2023-01-31T08:24:23.167Z,7.17
2023-01-31T08:26:50.003Z,7.63
2023-01-31T08:29:16.955Z,5.77
2023-01-31T08:31:44.457Z,8.73
2023-01-31T08:34:11.482Z,6.67
2023-01-31T08:36:38.272Z,3.50
2023-01-31T08:39:05.529Z,8.47
2023-01-31T08:41:33.527Z,9.80
2023-01-31T08:44:02.867Z,6.87
2023-01-31T08:46:33.717Z,4.87
2023-01-31T08:49:02.341Z,7.03
2023-01-31T08:51:29.461Z,7.40
2023-01-31T08:53:56.441Z,8.83
2023-01-31T08:56:26.130Z,9.00
2023-01-31T08:58:54.557Z,7.23
2023-01-31T09:01:22.837Z,3.20
2023-01-31T09:03:57.102Z,8.97
2023-01-31T09:06:27.068Z,7.30
2023-01-31T09:08:55.919Z,4.90
2023-01-31T09:11:22.849Z,5.13
2023-01-31T09:13:51.752Z,7.73
2023-01-31T09:16:21.082Z,7.00
2023-01-31T09:18:48.406Z,6.70
2023-01-31T09:21:18.627Z,5.13
2023-01-31T09:23:46.176Z,8.93
2023-01-31T09:26:13.841Z,5.77
2023-01-31T09:28:43.700Z,8.17
2023-01-31T09:31:13.612Z,6.47
2023-01-31T09:33:41.222Z,8.23
2023-01-31T09:36:16.585Z,6.93
2023-01-31T09:38:43.727Z,8.97
2023-01-31T09:41:32.170Z,7.63
2023-01-31T09:44:04.188Z,7.33
2023-01-31T09:46:37.331Z,4.83
2023-01-31T09:49:07.439Z,6.37
2023-01-31T09:51:34.741Z,7.13
2023-01-31T09:54:04.904Z,4.30
2023-01-31T09:56:45.722Z,7.47
2023-01-31T09:59:20.543Z,6.83
2023-01-31T10:01:53.098Z,5.57
2023-01-31T10:04:41.288Z,7.63
2023-01-31T10:07:23.371Z,5.53
2023-01-31T10:09:57.438Z,9.37
2023-01-31T10:12:46.955Z,5.97
2023-01-31T10:15:39.926Z,6.43
2023-01-31T10:18:16.163Z,4.67
2023-01-31T10:20:52.596Z,5.90
2023-01-31T10:23:37.407Z,6.27
2023-01-31T10:26:11.521Z,6.53
2023-01-31T10:28:48.037Z,7.50
2023-01-31T10:31:29.352Z,5.50
2023-01-31T10:34:02.417Z,4.23
2023-01-31T10:36:50.158Z,5.57
2023-01-31T10:39:26.550Z,5.17
2023-01-31T10:42:09.274Z,5.03
2023-01-31T10:44:50.706Z,6.50
2023-01-31T10:47:19.512Z,3.60
2023-01-31T10:49:49.121Z,7.30
2023-01-31T10:52:50.534Z,5.13
2023-01-31T10:55:59.542Z,5.27
2023-01-31T10:58:26.805Z,4.27
2023-01-31T11:00:54.079Z,7.83
2023-01-31T11:03:21.311Z,6.63
2023-01-31T11:05:51.039Z,8.10
2023-01-31T11:08:49.799Z,3.87
2023-01-31T11:11:23.455Z,4.83
2023-01-31T11:14:05.674Z,5.83
2023-01-31T11:16:36.632Z,4.17
2023-01-31T11:19:32.056Z,5.43
2023-01-31T11:23:22.096Z,2.80
2023-01-31T11:26:38.159Z,3.70
2023-01-31T11:30:04.563Z,3.93
2023-01-31T11:33:23.005Z,3.00
2023-01-31T11:36:12.031Z,4.23
2023-01-31T11:43:51.738Z,5.03
2023-01-31T11:46:32.313Z,6.87
2023-01-31T11:48:59.254Z,5.03
2023-01-31T11:51:34.430Z,3.97
2023-01-31T11:56:55.718Z,7.27
2023-01-31T11:59:35.931Z,5.73
2023-01-31T12:02:06.139Z,4.07
2023-01-31T12:04:43.222Z,5.30
2023-01-31T12:07:26.403Z,5.13
2023-01-31T12:09:53.571Z,6.30
2023-01-31T12:14:01.646Z,6.30
2023-01-31T12:20:27.017Z,5.37
2023-01-31T12:23:22.151Z,5.43
2023-01-31T12:26:19.669Z,4.90
2023-01-31T12:29:27.758Z,5.60
2023-01-31T12:32:09.259Z,5.47
2023-01-31T12:35:15.383Z,6.77
2023-01-31T12:38:00.511Z,4.00
2023-01-31T12:40:42.006Z,6.67
2023-01-31T12:44:08.659Z,5.27
2023-01-31T12:53:45.607Z,4.97
2023-01-31T12:56:49.903Z,5.23
2023-01-31T13:03:28.460Z,5.90
2023-01-31T13:09:21.097Z,4.70
2023-01-31T13:12:28.718Z,4.57
2023-01-31T13:15:36.268Z,4.70
2023-01-31T13:18:27.949Z,3.30
2023-01-31T13:21:18.122Z,6.40
2023-01-31T13:24:16.525Z,3.70
2023-01-31T13:26:58.410Z,3.87
2023-01-31T13:30:10.700Z,6.23
2023-01-31T13:32:52.748Z,4.37
2023-01-31T13:35:53.350Z,6.20
2023-01-31T13:38:29.800Z,5.33
2023-01-31T13:41:33.651Z,5.53
2023-01-31T13:44:26.753Z,4.17
2023-01-31T13:50:09.645Z,5.90
2023-01-31T13:52:46.585Z,2.90
2023-01-31T13:55:21.818Z,3.20
2023-01-31T13:57:59.824Z,3.40
2023-01-31T14:01:07.447Z,3.47
2023-01-31T14:04:31.359Z,3.90
2023-01-31T14:07:07.215Z,3.73
2023-01-31T14:09:37.020Z,2.93
2023-01-31T14:12:10.134Z,3.57
2023-01-31T14:14:45.087Z,3.07
2023-01-31T14:17:22.158Z,4.00
2023-01-31T14:19:49.676Z,3.53
2023-01-31T14:22:36.609Z,2.70
2023-01-31T14:25:18.749Z,3.87
2023-01-31T14:28:04.413Z,2.80
2023-01-31T14:30:36.795Z,3.23
2023-01-31T14:33:16.475Z,4.37
2023-01-31T14:36:18.592Z,4.00
2023-01-31T14:39:19.060Z,5.27
2023-01-31T14:41:57.973Z,3.73
2023-01-31T14:45:03.418Z,4.63
2023-01-31T14:47:31.326Z,4.30
2023-01-31T14:50:12.805Z,2.53
2023-01-31T14:53:08.572Z,4.53
2023-01-31T14:55:51.432Z,2.83
2023-01-31T14:58:24.024Z,4.53
2023-01-31T15:00:54.932Z,4.13
2023-01-31T15:03:28.520Z,4.27
2023-01-31T15:06:40.728Z,2.03
2023-01-31T15:09:28.446Z,11.17
2023-01-31T15:11:58.123Z,3.37
2023-01-31T15:14:35.148Z,6.57
2023-01-31T15:17:33.615Z,4.90
2023-01-31T15:20:19.792Z,2.10
2023-01-31T15:22:47.650Z,6.80
2023-01-31T15:25:32.449Z,3.93
2023-01-31T15:28:02.287Z,6.47
2023-01-31T15:30:34.481Z,3.27
2023-01-31T15:33:42.643Z,6.40
2023-01-31T15:36:21.754Z,3.77
2023-01-31T15:39:06.442Z,2.37
2023-01-31T15:41:43.870Z,2.17
2023-01-31T15:44:24.970Z,2.43
2023-01-31T15:46:54.868Z,3.77
2023-01-31T15:49:43.325Z,2.17
2023-01-31T15:52:19.201Z,4.23
2023-01-31T15:54:54.908Z,2.40
2023-01-31T15:57:27.044Z,3.27
2023-01-31T15:59:57.880Z,2.77
2023-01-31T16:02:34.254Z,3.50
2023-01-31T16:05:06.214Z,5.13
2023-01-31T16:07:33.784Z,2.30
2023-01-31T16:10:02.883Z,2.93
2023-01-31T16:12:32.767Z,2.90
2023-01-31T16:15:07.543Z,3.23
2023-01-31T16:17:36.025Z,2.67
2023-01-31T16:20:05.816Z,2.33
2023-01-31T16:22:34.214Z,2.47
2023-01-31T16:25:04.636Z,1.90
2023-01-31T16:27:37.865Z,4.83
2023-01-31T16:30:06.748Z,3.20
2023-01-31T16:32:38.024Z,2.33
2023-01-31T16:35:08.514Z,3.07
2023-01-31T16:37:41.760Z,1.80
2023-01-31T16:40:23.623Z,2.17
2023-01-31T16:42:50.747Z,2.60
2023-01-31T16:45:35.981Z,2.43
2023-01-31T16:48:21.693Z,2.93
2023-01-31T16:50:50.335Z,2.10
2023-01-31T16:53:22.042Z,5.17
2023-01-31T16:56:14.833Z,1.93
2023-01-31T16:58:48.310Z,1.17
2023-01-31T17:01:26.831Z,2.87
2023-01-31T17:04:05.152Z,1.97
2023-01-31T17:06:34.282Z,1.97
2023-01-31T17:09:03.146Z,1.80
2023-01-31T17:11:42.288Z,2.40
2023-01-31T17:14:12.057Z,1.83
2023-01-31T17:16:40.074Z,2.77
2023-01-31T17:19:08.836Z,1.40
2023-01-31T17:21:42.833Z,2.30
2023-01-31T17:24:14.045Z,1.63
2023-01-31T17:26:41.345Z,3.13
2023-01-31T17:29:08.722Z,2.77
2023-01-31T17:31:35.836Z,2.27
2023-01-31T17:34:05.434Z,1.63
2023-01-31T17:36:32.403Z,8.10
2023-01-31T17:39:00.058Z,1.40
2023-01-31T17:41:31.374Z,1.93
2023-01-31T17:44:01.334Z,2.77
2023-01-31T17:46:32.062Z,2.17
2023-01-31T17:49:00.542Z,1.63
2023-01-31T17:51:28.444Z,1.37
2023-01-31T17:53:55.422Z,3.90
2023-01-31T17:56:22.725Z,3.33
2023-01-31T17:58:53.430Z,2.57
2023-01-31T18:01:24.676Z,3.73
2023-01-31T18:03:54.709Z,2.93
2023-01-31T18:06:23.076Z,2.97
2023-01-31T18:08:52.433Z,2.30
2023-01-31T18:11:20.546Z,2.17
2023-01-31T18:13:49.158Z,2.83
2023-01-31T18:16:18.447Z,2.37
2023-01-31T18:18:46.993Z,2.20
2023-01-31T18:21:17.704Z,1.83
2023-01-31T18:23:51.825Z,1.70
2023-01-31T18:26:20.790Z,2.90
2023-01-31T18:28:49.188Z,3.30
2023-01-31T18:31:18.045Z,2.20
2023-01-31T18:33:47.555Z,2.70
2023-01-31T18:36:20.459Z,3.50
2023-01-31T18:38:50.586Z,3.37
2023-01-31T18:41:22.262Z,3.27
2023-01-31T18:43:51.173Z,2.73
2023-01-31T18:46:19.786Z,3.20
2023-01-31T18:48:48.045Z,3.07
2023-01-31T18:51:17.936Z,4.93
2023-01-31T18:53:47.880Z,2.53
2023-01-31T18:56:18.024Z,3.47
2023-01-31T18:58:47.709Z,7.23
2023-01-31T19:01:14.512Z,2.73
2023-01-31T19:03:45.701Z,4.13
2023-01-31T19:06:17.457Z,2.70
2023-01-31T19:08:49.500Z,1.93
2023-01-31T19:11:19.576Z,1.47
2023-01-31T19:13:49.477Z,3.10
2023-01-31T19:16:20.821Z,2.87
2023-01-31T19:18:48.555Z,2.03
2023-01-31T19:21:27.472Z,1.60
2023-01-31T19:23:59.888Z,1.90
2023-01-31T19:26:28.891Z,1.47
2023-01-31T19:28:58.311Z,2.67
2023-01-31T19:31:27.503Z,1.80
2023-01-31T19:34:01.081Z,2.10
2023-01-31T19:36:31.793Z,1.77
2023-01-31T19:39:02.247Z,1.80
2023-01-31T19:41:31.253Z,1.47
2023-01-31T19:44:01.328Z,1.80
2023-01-31T19:46:32.616Z,1.27
2023-01-31T19:49:01.917Z,1.00
2023-01-31T19:51:30.021Z,0.90
2023-01-31T19:54:02.598Z,2.00
2023-01-31T19:56:31.873Z,1.60
2023-01-31T19:59:01.307Z,2.00
2023-01-31T20:01:28.681Z,1.47
2023-01-31T20:03:57.604Z,1.43
2023-01-31T20:06:27.837Z,3.27
2023-01-31T20:08:58.576Z,1.70
2023-01-31T20:11:29.366Z,1.30
2023-01-31T20:13:58.667Z,1.40
2023-01-31T20:16:27.280Z,1.73
2023-01-31T20:18:59.171Z,1.57
2023-01-31T20:21:26.945Z,5.57
2023-01-31T20:23:54.592Z,4.07
2023-01-31T20:26:24.764Z,2.33
2023-01-31T20:28:51.958Z,1.33
2023-01-31T20:31:19.220Z,2.03
2023-01-31T20:33:46.675Z,2.27
2023-01-31T20:36:26.160Z,2.10
2023-01-31T20:38:58.637Z,1.57
2023-01-31T20:41:26.062Z,2.37
2023-01-31T20:44:02.324Z,3.10
2023-01-31T20:46:32.626Z,2.07
2023-01-31T20:49:12.331Z,2.63
2023-01-31T20:51:56.537Z,1.57
2023-01-31T20:57:38.442Z,1.70
2023-01-31T21:00:30.932Z,1.70
2023-01-31T21:02:58.049Z,3.23
2023-01-31T21:05:24.993Z,3.17
2023-01-31T21:07:52.128Z,2.00
2023-01-31T21:10:19.236Z,1.07
2023-01-31T21:12:46.096Z,3.10
2023-01-31T21:15:13.025Z,1.70
2023-01-31T21:17:40.771Z,2.70
2023-01-31T21:20:08.923Z,2.17
2023-01-31T21:22:35.954Z,8.33
2023-01-31T21:25:03.235Z,3.20
2023-01-31T21:27:37.611Z,2.03
2023-01-31T21:30:29.821Z,3.80
2023-01-31T21:37:17.405Z,1.27
2023-01-31T21:44:11.436Z,1.83
2023-01-31T21:46:38.258Z,2.00
2023-01-31T21:49:05.116Z,1.33
2023-01-31T21:51:32.333Z,1.53
2023-01-31T21:53:59.163Z,4.33
2023-01-31T21:56:28.219Z,2.23
2023-01-31T21:58:56.459Z,1.60
2023-01-31T22:01:26.833Z,1.70
2023-01-31T22:03:55.277Z,1.80
2023-01-31T22:06:26.229Z,3.43
2023-01-31T22:08:55.171Z,1.77
2023-01-31T22:11:22.347Z,1.70
2023-01-31T22:13:52.615Z,2.03
2023-01-31T22:16:21.471Z,1.97
2023-01-31T22:18:48.952Z,1.40
2023-01-31T22:21:21.553Z,4.97
2023-01-31T22:23:53.711Z,1.97
2023-01-31T22:26:24.010Z,3.13
2023-01-31T22:28:53.583Z,4.67
2023-01-31T22:31:20.547Z,2.53
2023-01-31T22:33:48.139Z,3.23
2023-01-31T22:36:16.175Z,5.50
2023-01-31T22:38:43.213Z,3.40
2023-01-31T22:41:12.699Z,2.10
2023-01-31T22:43:42.526Z,2.27
2023-01-31T22:46:14.193Z,2.90
2023-01-31T22:48:41.604Z,3.50
2023-01-31T22:51:12.438Z,3.97
2023-01-31T22:53:40.151Z,1.73
2023-01-31T22:56:16.891Z,2.10
2023-01-31T22:58:43.906Z,2.83
2023-01-31T23:01:16.209Z,3.17
2023-01-31T23:03:43.432Z,3.63
2023-01-31T23:06:11.952Z,3.63
2023-01-31T23:08:39.335Z,4.40
2023-01-31T23:11:08.811Z,2.30
2023-01-31T23:13:36.744Z,2.70
2023-01-31T23:16:05.463Z,5.07
2023-01-31T23:18:32.371Z,2.57
2023-01-31T23:21:10.976Z,3.97
2023-01-31T23:23:38.155Z,2.90
2023-01-31T23:26:05.808Z,3.73
2023-01-31T23:28:32.650Z,3.87
2023-01-31T23:30:59.603Z,3.07
2023-01-31T23:33:27.228Z,4.50
2023-01-31T23:35:54.224Z,5.13
2023-01-31T23:38:21.726Z,3.33
2023-01-31T23:40:52.986Z,3.23
2023-01-31T23:43:21.178Z,5.60
2023-01-31T23:45:48.440Z,5.30
2023-01-31T23:48:15.410Z,3.57
2023-01-31T23:50:42.787Z,4.00
2023-01-31T23:53:09.585Z,5.23
2023-01-31T23:55:37.468Z,5.40
2023-01-31T23:58:04.686Z,4.50
